Time;durP1;ratioP1;P1;durP2;ratioP2;P2;SDS_P1;SDS_P2;PMS_P1;PMS_P2;Temp;Humidity;BMP_temperature;BMP_pressure;BME280_temperature;BME280_humidity;BME280_pressure;Samples;Min_cycle;Max_cycle;Signal;HPM_P1;HPM_P2
2022/10/04 00:00:25;0.00;0.00;0.62;0.00;0.00;0.62;3.40;1.80;;;27.30;28.00;;;;;;2265606;61;20376;-63
2022/10/04 00:03:18;0.00;0.00;0.62;0.00;0.00;0.62;3.33;1.50;;;27.30;27.90;;;;;;2264447;61;20352;-63
2022/10/04 00:06:05;0.00;0.00;0.62;0.00;0.00;0.62;2.17;1.30;;;27.30;27.90;;;;;;2266057;61;20409;-65
2022/10/04 00:08:55;0.00;0.00;0.62;0.00;0.00;0.62;2.63;1.70;;;27.30;27.90;;;;;;2265990;61;20360;-63
2022/10/04 00:11:45;0.00;0.00;0.62;0.00;0.00;0.62;2.60;1.43;;;27.20;27.80;;;;;;2265837;61;20755;-63
2022/10/04 00:14:36;0.00;0.00;0.62;0.00;0.00;0.62;2.60;1.73;;;27.20;27.80;;;;;;2266133;61;20364;-63
2022/10/04 00:17:24;0.00;0.00;0.62;0.00;0.00;0.62;2.10;1.47;;;27.20;27.80;;;;;;2265119;61;20564;-62
2022/10/04 00:20:58;0.00;0.00;0.62;0.00;0.00;0.62;2.90;1.43;;;27.20;27.80;;;;;;2265763;61;20388;-63
2022/10/04 00:23:46;0.00;0.00;0.62;0.00;0.00;0.62;2.63;1.67;;;27.20;27.80;;;;;;2266045;61;20369;-62
2022/10/04 00:27:10;0.00;0.00;0.62;0.00;0.00;0.62;2.00;1.10;;;27.20;27.80;;;;;;2265856;61;20757;-63
2022/10/04 00:30:22;0.00;0.00;0.62;0.00;0.00;0.62;2.43;1.53;;;27.10;27.70;;;;;;2257250;61;20592;-63
2022/10/04 00:33:07;0.00;0.00;0.62;0.00;0.00;0.62;3.20;1.70;;;27.10;27.70;;;;;;2255706;61;20394;-63
2022/10/04 00:35:52;0.00;0.00;0.62;0.00;0.00;0.62;2.87;1.30;;;27.10;27.70;;;;;;2266084;61;20426;-63
2022/10/04 00:38:37;0.00;0.00;0.62;0.00;0.00;0.62;1.67;1.23;;;27.00;27.70;;;;;;2265620;61;20353;-63
2022/10/04 00:41:22;0.00;0.00;0.62;0.00;0.00;0.62;3.10;1.30;;;27.00;27.70;;;;;;2265705;61;20461;-64
2022/10/04 00:44:15;0.00;0.00;0.62;0.00;0.00;0.62;2.03;1.60;;;27.00;27.70;;;;;;2266804;61;20714;-63
2022/10/04 00:47:12;0.00;0.00;0.62;0.00;0.00;0.62;3.10;1.77;;;27.00;27.70;;;;;;2268726;61;20384;-64
2022/10/04 00:50:13;0.00;0.00;0.62;0.00;0.00;0.62;2.63;1.30;;;27.00;27.70;;;;;;2270043;61;20492;-65
2022/10/04 00:53:01;0.00;0.00;0.62;0.00;0.00;0.62;2.07;1.30;;;27.00;27.70;;;;;;2269954;61;20383;-64
2022/10/04 00:55:50;0.00;0.00;0.62;0.00;0.00;0.62;2.70;1.60;;;26.90;27.60;;;;;;2269068;61;20360;-64
2022/10/04 00:58:45;0.00;0.00;0.62;0.00;0.00;0.62;2.37;1.30;;;26.90;27.60;;;;;;2269905;61;20355;-63
2022/10/04 01:01:34;0.00;0.00;0.62;0.00;0.00;0.62;2.90;1.73;;;26.90;27.60;;;;;;2268762;61;20783;-63
2022/10/04 01:04:33;0.00;0.00;0.62;0.00;0.00;0.62;2.27;1.60;;;26.90;27.60;;;;;;2270054;61;20399;-63
2022/10/04 01:07:25;0.00;0.00;0.62;0.00;0.00;0.62;3.53;1.40;;;26.90;27.70;;;;;;2269795;61;20487;-63
2022/10/04 01:10:17;0.00;0.00;0.62;0.00;0.00;0.62;3.43;1.30;;;26.80;27.70;;;;;;2268338;61;20376;-63
2022/10/04 01:13:14;0.00;0.00;0.62;0.00;0.00;0.62;1.67;1.27;;;26.80;27.70;;;;;;2270051;61;20356;-64
2022/10/04 01:16:06;0.00;0.00;0.62;0.00;0.00;0.62;2.20;1.20;;;26.80;27.70;;;;;;2268836;61;20348;-63
2022/10/04 01:18:51;0.00;0.00;0.62;0.00;0.00;0.62;2.17;1.40;;;26.80;27.70;;;;;;2269733;61;20356;-63
2022/10/04 01:21:38;0.00;0.00;0.62;0.00;0.00;0.62;2.13;1.20;;;26.70;27.70;;;;;;2269638;61;20407;-64
2022/10/04 01:24:32;0.00;0.00;0.62;0.00;0.00;0.62;2.77;1.60;;;26.70;27.70;;;;;;2268529;61;20375;-65
2022/10/04 01:27:40;0.00;0.00;0.62;0.00;0.00;0.62;2.73;1.50;;;26.70;27.70;;;;;;2269903;61;20630;-62
2022/10/04 01:30:25;0.00;0.00;0.62;0.00;0.00;0.62;1.80;0.93;;;26.70;27.70;;;;;;2269525;61;20594;-63
2022/10/04 01:33:12;0.00;0.00;0.62;0.00;0.00;0.62;2.33;1.53;;;26.60;27.70;;;;;;2269815;61;20391;-63
2022/10/04 01:35:57;0.00;0.00;0.62;0.00;0.00;0.62;2.43;1.47;;;26.60;27.70;;;;;;2269861;61;20434;-64
2022/10/04 01:38:42;0.00;0.00;0.62;0.00;0.00;0.62;2.47;1.33;;;26.60;27.80;;;;;;2268717;61;20574;-63
2022/10/04 01:41:41;0.00;0.00;0.62;0.00;0.00;0.62;3.73;1.27;;;26.60;27.80;;;;;;2269740;61;20360;-64
2022/10/04 01:44:35;0.00;0.00;0.62;0.00;0.00;0.62;2.77;1.50;;;26.60;27.80;;;;;;2269735;61;20360;-64
2022/10/04 01:47:26;0.00;0.00;0.62;0.00;0.00;0.62;2.03;1.20;;;26.60;27.80;;;;;;2268730;61;20388;-64
2022/10/04 01:50:16;0.00;0.00;0.62;0.00;0.00;0.62;3.27;1.67;;;26.50;27.80;;;;;;2269646;61;20755;-63
2022/10/04 01:53:11;0.00;0.00;0.62;0.00;0.00;0.62;2.07;1.43;;;26.50;27.80;;;;;;2268762;61;20391;-64
2022/10/04 01:56:04;0.00;0.00;0.62;0.00;0.00;0.62;4.07;1.47;;;26.50;27.80;;;;;;2269686;61;20391;-64
2022/10/04 01:58:53;0.00;0.00;0.62;0.00;0.00;0.62;2.23;1.20;;;26.50;27.80;;;;;;2269723;61;20387;-64
2022/10/04 02:01:44;0.00;0.00;0.62;0.00;0.00;0.62;2.77;1.30;;;26.40;27.80;;;;;;2268453;61;20732;-64
2022/10/04 02:04:34;0.00;0.00;0.62;0.00;0.00;0.62;2.27;1.40;;;26.40;27.80;;;;;;2269850;61;20720;-64
2022/10/04 02:07:20;0.00;0.00;0.62;0.00;0.00;0.62;1.90;1.30;;;26.40;27.80;;;;;;2269660;61;20451;-64
2022/10/04 02:10:10;0.00;0.00;0.62;0.00;0.00;0.62;2.17;1.33;;;26.40;27.80;;;;;;2269449;61;20399;-63
2022/10/04 02:12:56;0.00;0.00;0.62;0.00;0.00;0.62;2.90;1.67;;;26.40;27.90;;;;;;2269804;61;20375;-64
2022/10/04 02:15:43;0.00;0.00;0.62;0.00;0.00;0.62;3.77;1.30;;;26.40;27.80;;;;;;2268259;61;20378;-64
2022/10/04 02:18:30;0.00;0.00;0.62;0.00;0.00;0.62;1.80;1.27;;;26.30;27.80;;;;;;2269594;61;20613;-62
2022/10/04 02:21:17;0.00;0.00;0.62;0.00;0.00;0.62;2.80;1.60;;;26.30;27.80;;;;;;2269653;61;20447;-64
2022/10/04 02:24:03;0.00;0.00;0.62;0.00;0.00;0.62;2.80;1.33;;;26.30;27.80;;;;;;2268285;61;20360;-63
2022/10/04 02:26:50;0.00;0.00;0.62;0.00;0.00;0.62;2.50;1.30;;;26.30;27.80;;;;;;2269720;61;20396;-63
2022/10/04 02:29:35;0.00;0.00;0.62;0.00;0.00;0.62;2.63;1.13;;;26.30;27.80;;;;;;2269459;61;20449;-63
2022/10/04 02:35:27;0.00;0.00;0.62;0.00;0.00;0.62;2.00;1.50;;;26.30;27.80;;;;;;2269662;61;20391;-63
2022/10/04 02:38:17;0.00;0.00;0.62;0.00;0.00;0.62;2.40;1.30;;;26.30;27.80;;;;;;2268340;61;20573;-63
2022/10/04 02:41:11;0.00;0.00;0.62;0.00;0.00;0.62;2.30;1.40;;;26.20;27.80;;;;;;2269533;61;20371;-63
2022/10/04 02:44:01;0.00;0.00;0.62;0.00;0.00;0.62;2.40;1.53;;;26.20;27.80;;;;;;2269820;61;20395;-62
2022/10/04 02:46:53;0.00;0.00;0.62;0.00;0.00;0.62;3.30;1.67;;;26.20;27.80;;;;;;2268680;61;20376;-64
2022/10/04 02:49:44;0.00;0.00;0.62;0.00;0.00;0.62;2.10;1.50;;;26.20;27.80;;;;;;2269574;61;20736;-63
2022/10/04 02:52:35;0.00;0.00;0.62;0.00;0.00;0.62;2.50;1.57;;;26.20;27.80;;;;;;2268715;61;20360;-64
2022/10/04 02:55:24;0.00;0.00;0.62;0.00;0.00;0.62;2.87;1.60;;;26.20;27.90;;;;;;2269502;61;20360;-63
2022/10/04 02:58:13;0.00;0.00;0.62;0.00;0.00;0.62;2.00;1.20;;;26.20;27.90;;;;;;2269538;61;20384;-64
2022/10/04 03:01:00;0.00;0.00;0.62;0.00;0.00;0.62;7.40;1.47;;;26.10;27.80;;;;;;2268396;61;20372;-64
2022/10/04 03:03:46;0.00;0.00;0.62;0.00;0.00;0.62;2.50;1.50;;;26.10;27.80;;;;;;2269537;61;20348;-63
2022/10/04 03:06:32;0.00;0.00;0.62;0.00;0.00;0.62;1.87;1.27;;;26.10;27.90;;;;;;2269636;61;20417;-63
2022/10/04 03:09:20;0.00;0.00;0.62;0.00;0.00;0.62;2.50;1.37;;;26.10;27.90;;;;;;2269278;61;20735;-63
2022/10/04 03:12:09;0.00;0.00;0.62;0.00;0.00;0.62;2.57;1.27;;;26.10;27.90;;;;;;2269462;61;20352;-64
2022/10/04 03:14:54;0.00;0.00;0.62;0.00;0.00;0.62;2.07;1.30;;;26.00;27.80;;;;;;2268697;61;20351;-63
2022/10/04 03:17:40;0.00;0.00;0.62;0.00;0.00;0.62;2.60;1.67;;;26.00;27.80;;;;;;2269570;61;20763;-63
2022/10/04 03:20:26;0.00;0.00;0.62;0.00;0.00;0.62;2.20;1.50;;;26.00;27.80;;;;;;2269368;61;20391;-63
2022/10/04 03:23:14;0.00;0.00;0.62;0.00;0.00;0.62;3.17;1.60;;;26.00;27.80;;;;;;2268295;61;20371;-63
2022/10/04 03:26:03;0.00;0.00;0.62;0.00;0.00;0.62;2.50;1.50;;;26.00;27.90;;;;;;2269542;61;20402;-64
2022/10/04 03:28:48;0.00;0.00;0.62;0.00;0.00;0.62;3.20;1.40;;;26.00;27.90;;;;;;2269183;61;20417;-63
2022/10/04 03:31:36;0.00;0.00;0.62;0.00;0.00;0.62;2.10;1.47;;;26.00;27.90;;;;;;2269326;61;20352;-64
2022/10/04 03:34:24;0.00;0.00;0.62;0.00;0.00;0.62;2.63;1.83;;;26.00;27.90;;;;;;2269597;61;20390;-63
2022/10/04 03:37:17;0.00;0.00;0.62;0.00;0.00;0.62;2.37;1.40;;;26.00;27.90;;;;;;2268312;61;20403;-64
2022/10/04 03:40:08;0.00;0.00;0.62;0.00;0.00;0.62;3.57;1.30;;;26.00;27.90;;;;;;2269453;61;20702;-64
2022/10/04 03:42:53;0.00;0.00;0.62;0.00;0.00;0.62;4.00;1.87;;;25.90;27.90;;;;;;2269725;61;20448;-64
2022/10/04 03:45:40;0.00;0.00;0.62;0.00;0.00;0.62;1.97;1.30;;;25.90;27.90;;;;;;2268497;61;20372;-64
2022/10/04 03:48:33;0.00;0.00;0.62;0.00;0.00;0.62;2.33;1.33;;;25.90;27.90;;;;;;2269751;61;20356;-64
2022/10/04 03:51:21;0.00;0.00;0.62;0.00;0.00;0.62;2.40;1.37;;;25.90;27.90;;;;;;2269076;61;20595;-64
2022/10/04 03:54:10;0.00;0.00;0.62;0.00;0.00;0.62;2.30;1.53;;;25.90;27.90;;;;;;2270101;61;20426;-64
2022/10/04 03:56:58;0.00;0.00;0.62;0.00;0.00;0.62;1.83;1.23;;;25.90;27.90;;;;;;2270324;61;20357;-64
2022/10/04 03:59:43;0.00;0.00;0.62;0.00;0.00;0.62;2.23;1.30;;;25.80;27.90;;;;;;2268721;61;20890;-64
2022/10/04 04:02:38;0.00;0.00;0.62;0.00;0.00;0.62;2.20;1.30;;;25.80;27.90;;;;;;2270157;61;20394;-64
2022/10/04 04:05:29;0.00;0.00;0.62;0.00;0.00;0.62;2.07;1.47;;;25.80;27.90;;;;;;2270142;61;20441;-64
2022/10/04 04:08:23;0.00;0.00;0.62;0.00;0.00;0.62;4.00;1.40;;;25.80;27.90;;;;;;2269158;61;20379;-65
2022/10/04 04:11:17;0.00;0.00;0.62;0.00;0.00;0.62;2.13;1.20;;;25.80;28.00;;;;;;2270376;61;20684;-64
2022/10/04 04:14:11;0.00;0.00;0.62;0.00;0.00;0.62;2.10;1.13;;;25.80;28.00;;;;;;2269129;61;20368;-64
2022/10/04 04:17:28;0.00;0.00;0.62;0.00;0.00;0.62;2.47;1.73;;;25.80;28.00;;;;;;2270305;61;20360;-64
2022/10/04 04:20:19;0.00;0.00;0.62;0.00;0.00;0.62;1.80;1.13;;;25.80;28.00;;;;;;2269816;61;20387;-63
2022/10/04 04:23:17;0.00;0.00;0.62;0.00;0.00;0.62;1.80;1.10;;;25.70;28.00;;;;;;2269526;61;20505;-64
2022/10/04 04:26:16;0.00;0.00;0.62;0.00;0.00;0.62;2.10;1.40;;;25.70;28.00;;;;;;2270037;61;20613;-64
2022/10/04 04:29:10;0.00;0.00;0.62;0.00;0.00;0.62;2.53;1.10;;;25.70;28.00;;;;;;2268431;61;20418;-64
2022/10/04 04:31:59;0.00;0.00;0.62;0.00;0.00;0.62;3.00;1.47;;;25.70;28.00;;;;;;2270230;61;20582;-64
2022/10/04 04:34:51;0.00;0.00;0.62;0.00;0.00;0.62;2.10;1.10;;;25.70;28.00;;;;;;2270144;61;20402;-64
2022/10/04 04:37:37;0.00;0.00;0.62;0.00;0.00;0.62;2.23;1.33;;;25.70;28.00;;;;;;2268896;61;20389;-62
2022/10/04 04:40:24;0.00;0.00;0.62;0.00;0.00;0.62;2.33;1.43;;;25.70;28.50;;;;;;2269910;61;20395;-63
2022/10/04 04:43:15;0.00;0.00;0.62;0.00;0.00;0.62;2.50;1.37;;;25.70;28.00;;;;;;2269074;61;20646;-65
2022/10/04 04:46:07;0.00;0.00;0.62;0.00;0.00;0.62;2.47;1.20;;;25.60;28.00;;;;;;2269716;61;20357;-63
2022/10/04 04:49:00;0.00;0.00;0.62;0.00;0.00;0.62;2.43;1.33;;;25.60;28.00;;;;;;2270046;61;20360;-64
2022/10/04 04:51:50;0.00;0.00;0.62;0.00;0.00;0.62;1.70;1.20;;;25.60;28.00;;;;;;2268770;61;20376;-63
2022/10/04 04:54:37;0.00;0.00;0.62;0.00;0.00;0.62;1.50;1.07;;;25.50;28.00;;;;;;2270013;61;20359;-64
2022/10/04 04:57:22;0.00;0.00;0.62;0.00;0.00;0.62;2.50;1.50;;;25.60;28.10;;;;;;2270117;61;20347;-64
2022/10/04 05:00:16;0.00;0.00;0.62;0.00;0.00;0.62;3.93;1.40;;;25.60;28.10;;;;;;2269348;61;20414;-63
2022/10/04 05:03:07;0.00;0.00;0.62;0.00;0.00;0.62;3.83;1.40;;;25.50;28.00;;;;;;2270114;61;20356;-63
2022/10/04 05:05:53;0.00;0.00;0.62;0.00;0.00;0.62;2.77;1.40;;;25.50;28.10;;;;;;2269159;61;20344;-63
2022/10/04 05:08:38;0.00;0.00;0.62;0.00;0.00;0.62;3.40;1.40;;;25.50;28.10;;;;;;2269808;61;20406;-65
2022/10/04 05:11:28;0.00;0.00;0.62;0.00;0.00;0.62;2.23;1.13;;;25.50;28.10;;;;;;2270011;61;20395;-69
2022/10/04 05:14:16;0.00;0.00;0.62;0.00;0.00;0.62;2.53;1.27;;;25.50;28.10;;;;;;2268702;61;20586;-65
2022/10/04 05:17:01;0.00;0.00;0.62;0.00;0.00;0.62;2.37;1.30;;;25.50;28.20;;;;;;2269867;61;20372;-69
2022/10/04 05:19:48;0.00;0.00;0.62;0.00;0.00;0.62;3.07;1.20;;;25.50;28.80;;;;;;2269687;61;20414;-65
2022/10/04 05:22:34;0.00;0.00;0.62;0.00;0.00;0.62;2.40;1.23;;;25.50;28.20;;;;;;2269753;61;20619;-65
2022/10/04 05:25:28;0.00;0.00;0.62;0.00;0.00;0.62;2.40;1.20;;;25.40;28.20;;;;;;2269825;61;20352;-64
2022/10/04 05:28:17;0.00;0.00;0.62;0.00;0.00;0.62;3.50;1.50;;;25.50;28.20;;;;;;2268710;61;20446;-64
2022/10/04 05:31:31;0.00;0.00;0.62;0.00;0.00;0.62;2.80;1.30;;;25.40;28.20;;;;;;2269768;61;20411;-65
2022/10/04 05:34:22;0.00;0.00;0.62;0.00;0.00;0.62;2.37;1.43;;;25.40;28.20;;;;;;2269973;61;20363;-66
2022/10/04 05:37:38;0.00;0.00;0.62;0.00;0.00;0.62;1.73;1.30;;;25.40;28.10;;;;;;2269508;61;20426;-65
2022/10/04 05:40:43;0.00;0.00;0.62;0.00;0.00;0.62;2.37;1.50;;;25.40;28.20;;;;;;2269670;61;20747;-68
2022/10/04 05:43:36;0.00;0.00;0.62;0.00;0.00;0.62;2.60;1.50;;;25.40;28.20;;;;;;2268793;61;20355;-65
2022/10/04 05:46:27;0.00;0.00;0.62;0.00;0.00;0.62;1.80;1.20;;;25.40;28.20;;;;;;2502653;53;20373;-67
2022/10/04 05:49:14;0.00;0.00;0.62;0.00;0.00;0.62;4.43;1.33;;;25.40;28.20;;;;;;2265736;61;20454;-69
2022/10/04 05:52:02;0.00;0.00;0.62;0.00;0.00;0.62;2.57;1.30;;;25.40;28.30;;;;;;2265476;61;20468;-68
2022/10/04 05:55:14;0.00;0.00;0.62;0.00;0.00;0.62;2.13;1.37;;;25.40;28.30;;;;;;2265961;61;20360;-68
2022/10/04 05:58:34;0.00;0.00;0.62;0.00;0.00;0.62;2.57;1.40;;;25.40;28.40;;;;;;2264316;61;20472;-67
2022/10/04 06:01:40;0.00;0.00;0.62;0.00;0.00;0.62;2.00;1.33;;;25.40;28.40;;;;;;2265346;61;20392;-67
2022/10/04 06:04:53;0.00;0.00;0.62;0.00;0.00;0.62;3.53;1.47;;;25.40;28.40;;;;;;2264714;61;20357;-67
2022/10/04 06:07:44;0.00;0.00;0.62;0.00;0.00;0.62;3.17;1.77;;;25.40;28.40;;;;;;2265782;61;20420;-67
2022/10/04 06:11:04;0.00;0.00;0.62;0.00;0.00;0.62;2.53;1.13;;;25.30;28.30;;;;;;2265670;61;20401;-68
2022/10/04 06:14:30;0.00;0.00;0.62;0.00;0.00;0.62;2.13;1.33;;;25.40;28.40;;;;;;2264261;61;20361;-65
2022/10/04 06:17:48;0.00;0.00;0.62;0.00;0.00;0.62;2.00;1.23;;;25.30;28.40;;;;;;2265809;61;20353;-66
2022/10/04 06:21:07;0.00;0.00;0.62;0.00;0.00;0.62;3.43;1.80;;;25.30;28.40;;;;;;2264883;61;20594;-66
2022/10/04 06:23:59;0.00;0.00;0.62;0.00;0.00;0.62;3.57;1.30;;;25.30;28.40;;;;;;2265515;61;20399;-65
2022/10/04 06:26:51;0.00;0.00;0.62;0.00;0.00;0.62;3.20;1.30;;;25.30;28.40;;;;;;2264651;61;20431;-67
2022/10/04 06:29:40;0.00;0.00;0.62;0.00;0.00;0.62;2.20;1.40;;;25.30;28.40;;;;;;2265566;61;20590;-67
2022/10/04 06:32:58;0.00;0.00;0.62;0.00;0.00;0.62;3.17;1.80;;;25.30;28.40;;;;;;2265756;61;20701;-69
2022/10/04 06:36:16;0.00;0.00;0.62;0.00;0.00;0.62;2.80;1.67;;;25.30;28.40;;;;;;2264521;61;20349;-66
2022/10/04 06:39:21;0.00;0.00;0.62;0.00;0.00;0.62;3.30;1.90;;;25.30;28.40;;;;;;2265646;61;20442;-65
2022/10/04 06:42:47;0.00;0.00;0.62;0.00;0.00;0.62;2.33;1.70;;;25.30;28.40;;;;;;2264117;61;20418;-71
2022/10/04 06:45:54;0.00;0.00;0.62;0.00;0.00;0.62;4.20;1.93;;;25.30;28.40;;;;;;2268882;61;20597;-67
2022/10/04 06:49:16;0.00;0.00;0.62;0.00;0.00;0.62;2.10;1.60;;;25.30;28.50;;;;;;2264482;61;20405;-69
2022/10/04 06:52:36;0.00;0.00;0.62;0.00;0.00;0.62;3.87;1.63;;;25.30;28.50;;;;;;2265500;61;20365;-66
2022/10/04 06:55:56;0.00;0.00;0.62;0.00;0.00;0.62;2.37;1.53;;;25.40;28.60;;;;;;2269611;61;20371;-68
2022/10/04 06:59:09;0.00;0.00;0.62;0.00;0.00;0.62;3.90;1.80;;;25.40;28.60;;;;;;2269315;61;20364;-68
2022/10/04 07:01:59;0.00;0.00;0.62;0.00;0.00;0.62;3.20;1.50;;;25.40;28.70;;;;;;2269476;61;20451;-68
2022/10/04 07:04:50;0.00;0.00;0.62;0.00;0.00;0.62;1.83;1.20;;;25.40;28.70;;;;;;2268261;61;20367;-70
2022/10/04 07:07:39;0.00;0.00;0.62;0.00;0.00;0.62;2.77;1.53;;;25.40;28.70;;;;;;2269608;61;20400;-70
2022/10/04 07:10:31;0.00;0.00;0.62;0.00;0.00;0.62;3.13;1.50;;;25.40;28.70;;;;;;2269523;61;20376;-67
2022/10/04 07:13:37;0.00;0.00;0.62;0.00;0.00;0.62;2.10;1.70;;;25.40;28.70;;;;;;2269068;61;20422;-72
2022/10/04 07:16:38;0.00;0.00;0.62;0.00;0.00;0.62;1.73;1.50;;;25.40;28.70;;;;;;2269621;61;20356;-69
2022/10/04 07:19:33;0.00;0.00;0.62;0.00;0.00;0.62;2.63;1.60;;;25.50;28.80;;;;;;2268206;61;20537;-69
2022/10/04 07:22:26;0.00;0.00;0.62;0.00;0.00;0.62;1.77;1.40;;;25.50;28.80;;;;;;2269545;61;20434;-70
2022/10/04 07:25:17;0.00;0.00;0.62;0.00;0.00;0.62;2.60;1.43;;;25.50;28.80;;;;;;2269945;61;20371;-69
2022/10/04 07:31:24;0.00;0.00;0.62;0.00;0.00;0.62;2.53;1.73;;;25.50;29.30;;;;;;2270277;61;20356;-68
2022/10/04 07:34:17;0.00;0.00;0.62;0.00;0.00;0.62;2.60;1.47;;;25.50;28.80;;;;;;2269108;61;20355;-73
2022/10/04 07:37:09;0.00;0.00;0.62;0.00;0.00;0.62;2.57;1.60;;;25.60;28.90;;;;;;2270266;61;20728;-70
2022/10/04 07:40:03;0.00;0.00;0.62;0.00;0.00;0.62;1.80;1.30;;;25.60;28.80;;;;;;2270113;61;20391;-67
2022/10/04 07:42:53;0.00;0.00;0.62;0.00;0.00;0.62;3.10;1.83;;;25.60;28.80;;;;;;2269217;61;20387;-70
2022/10/04 07:45:40;0.00;0.00;0.62;0.00;0.00;0.62;2.50;1.70;;;25.60;28.90;;;;;;2270127;61;20355;-70
2022/10/04 07:48:26;0.00;0.00;0.62;0.00;0.00;0.62;2.33;1.53;;;25.70;28.90;;;;;;2269125;61;20391;-71
2022/10/04 07:51:26;0.00;0.00;0.62;0.00;0.00;0.62;2.67;1.67;;;25.70;28.90;;;;;;2269924;61;20700;-65
2022/10/04 07:54:21;0.00;0.00;0.62;0.00;0.00;0.62;5.20;1.40;;;25.70;28.90;;;;;;2270143;61;20387;-75
2022/10/04 07:57:16;0.00;0.00;0.62;0.00;0.00;0.62;2.00;1.33;;;25.70;28.90;;;;;;2269215;61;20348;-73
2022/10/04 08:00:10;0.00;0.00;0.62;0.00;0.00;0.62;3.20;1.83;;;25.70;28.90;;;;;;2269978;61;20372;-74
2022/10/04 08:03:20;0.00;0.00;0.62;0.00;0.00;0.62;2.57;1.60;;;25.70;28.90;;;;;;2269089;61;20439;-72
2022/10/04 08:06:12;0.00;0.00;0.62;0.00;0.00;0.62;2.00;1.70;;;25.80;28.90;;;;;;2270213;61;20382;-68
2022/10/04 08:09:27;0.00;0.00;0.62;0.00;0.00;0.62;2.10;1.47;;;25.80;28.90;;;;;;2270143;61;20744;-75
2022/10/04 08:12:22;0.00;0.00;0.62;0.00;0.00;0.62;2.70;1.67;;;25.80;28.90;;;;;;2268716;61;20364;-67
2022/10/04 08:15:35;0.00;0.00;0.62;0.00;0.00;0.62;2.40;1.70;;;25.80;29.40;;;;;;2270200;61;20356;-67
2022/10/04 08:18:38;0.00;0.00;0.62;0.00;0.00;0.62;2.63;1.90;;;25.80;28.80;;;;;;2268637;61;20356;-71
2022/10/04 08:21:31;0.00;0.00;0.62;0.00;0.00;0.62;3.00;2.57;;;25.80;28.80;;;;;;2270104;61;20394;-71
2022/10/04 08:24:26;0.00;0.00;0.62;0.00;0.00;0.62;3.27;2.40;;;25.80;28.90;;;;;;2270074;61;20804;-72
2022/10/04 08:27:33;0.00;0.00;0.62;0.00;0.00;0.62;3.90;2.37;;;25.90;28.90;;;;;;2269112;61;20384;-71
2022/10/04 08:30:18;0.00;0.00;0.62;0.00;0.00;0.62;3.13;2.20;;;25.90;28.90;;;;;;2270079;61;21077;-72
2022/10/04 08:33:11;0.00;0.00;0.62;0.00;0.00;0.62;3.43;2.57;;;26.00;29.00;;;;;;2269001;61;20383;-74
2022/10/04 08:36:11;0.00;0.00;0.62;0.00;0.00;0.62;3.80;2.50;;;26.00;29.00;;;;;;2269698;61;20352;-74
2022/10/04 08:38:58;0.00;0.00;0.62;0.00;0.00;0.62;3.23;2.67;;;26.00;29.00;;;;;;2269646;61;20357;-66
2022/10/04 08:42:28;0.00;0.00;0.62;0.00;0.00;0.62;2.70;2.20;;;26.00;29.00;;;;;;2268796;61;20378;-66
2022/10/04 08:46:13;0.00;0.00;0.62;0.00;0.00;0.62;2.90;2.10;;;26.00;29.00;;;;;;2269995;61;20438;-68
2022/10/04 08:49:45;0.00;0.00;0.62;0.00;0.00;0.62;2.73;2.13;;;26.10;29.00;;;;;;2255666;61;20415;-67
2022/10/04 08:53:20;0.00;0.00;0.62;0.00;0.00;0.62;3.80;2.63;;;26.10;29.00;;;;;;2270139;61;20363;-66
2022/10/04 08:56:12;0.00;0.00;0.62;0.00;0.00;0.62;4.97;2.80;;;26.10;29.00;;;;;;2268520;61;20360;-67
2022/10/04 08:59:31;0.00;0.00;0.62;0.00;0.00;0.62;3.10;2.43;;;26.10;28.90;;;;;;2269954;61;20368;-69
2022/10/04 09:03:35;0.00;0.00;0.62;0.00;0.00;0.62;3.40;2.50;;;26.10;28.90;;;;;;2268530;61;20380;-69
2022/10/04 09:06:37;0.00;0.00;0.62;0.00;0.00;0.62;2.77;2.07;;;26.20;29.00;;;;;;2267776;61;20581;-68
2022/10/04 09:10:13;0.00;0.00;0.62;0.00;0.00;0.62;3.80;2.90;;;26.20;29.50;;;;;;2268866;61;20372;-67
2022/10/04 09:13:25;0.00;0.00;0.62;0.00;0.00;0.62;3.10;2.33;;;26.20;29.00;;;;;;2270040;61;20356;-66
2022/10/04 09:16:25;0.00;0.00;0.62;0.00;0.00;0.62;2.70;2.10;;;26.20;29.00;;;;;;2269988;61;20609;-67
2022/10/04 09:19:21;0.00;0.00;0.62;0.00;0.00;0.62;2.60;2.10;;;26.30;29.10;;;;;;2269509;61;20591;-72
2022/10/04 09:22:18;0.00;0.00;0.62;0.00;0.00;0.62;2.63;2.07;;;26.30;29.10;;;;;;2269852;61;20428;-68
2022/10/04 09:25:41;0.00;0.00;0.62;0.00;0.00;0.62;3.00;2.23;;;26.30;29.10;;;;;;2268609;61;20372;-67
2022/10/04 09:29:11;0.00;0.00;0.62;0.00;0.00;0.62;2.80;2.20;;;26.30;29.10;;;;;;2270262;61;20409;-67
2022/10/04 09:33:05;0.00;0.00;0.62;0.00;0.00;0.62;3.10;2.57;;;26.40;29.20;;;;;;2264767;61;20610;-68
2022/10/04 09:36:18;0.00;0.00;0.62;0.00;0.00;0.62;2.80;2.10;;;26.40;29.10;;;;;;2253311;61;20410;-71
2022/10/04 09:39:45;0.00;0.00;0.62;0.00;0.00;0.62;3.23;2.37;;;26.40;29.10;;;;;;2265496;61;20378;-68
2022/10/04 09:42:51;0.00;0.00;0.62;0.00;0.00;0.62;2.70;2.20;;;26.50;29.20;;;;;;2265535;61;20369;-66
2022/10/04 09:46:03;0.00;0.00;0.62;0.00;0.00;0.62;3.80;2.40;;;26.50;29.20;;;;;;2265217;61;20473;-70
2022/10/04 09:49:03;0.00;0.00;0.62;0.00;0.00;0.62;2.63;1.87;;;26.50;29.20;;;;;;2265365;61;20388;-64
2022/10/04 09:52:17;0.00;0.00;0.62;0.00;0.00;0.62;4.13;2.20;;;26.60;29.20;;;;;;2265360;61;20389;-63
2022/10/04 09:55:23;0.00;0.00;0.62;0.00;0.00;0.62;3.50;2.70;;;26.60;29.20;;;;;;2265331;61;20682;-66
2022/10/04 09:58:42;0.00;0.00;0.62;0.00;0.00;0.62;3.30;2.53;;;26.60;29.20;;;;;;2265351;61;20368;-70
2022/10/04 10:01:36;0.00;0.00;0.62;0.00;0.00;0.62;3.53;2.80;;;26.70;29.20;;;;;;2265146;61;20364;-68
2022/10/04 10:04:44;0.00;0.00;0.62;0.00;0.00;0.62;2.90;2.40;;;26.70;29.20;;;;;;2265399;61;20598;-65
2022/10/04 10:07:43;0.00;0.00;0.62;0.00;0.00;0.62;2.43;2.13;;;26.70;29.10;;;;;;2265408;61;20384;-68
2022/10/04 10:14:36;0.00;0.00;0.62;0.00;0.00;0.62;2.47;2.20;;;26.80;29.10;;;;;;2265031;61;20741;-65
2022/10/04 10:17:35;0.00;0.00;0.62;0.00;0.00;0.62;4.00;2.10;;;26.80;29.10;;;;;;2265324;61;20744;-73
2022/10/04 10:20:49;0.00;0.00;0.62;0.00;0.00;0.62;2.53;1.97;;;26.80;29.10;;;;;;2265662;61;20596;-72
2022/10/04 10:24:19;0.00;0.00;0.62;0.00;0.00;0.62;2.30;1.77;;;26.90;29.10;;;;;;2265198;61;20849;-70
2022/10/04 10:27:36;0.00;0.00;0.62;0.00;0.00;0.62;3.37;2.23;;;26.90;29.10;;;;;;2265369;61;20377;-71
2022/10/04 10:30:30;0.00;0.00;0.62;0.00;0.00;0.62;2.80;2.03;;;26.90;29.20;;;;;;2398576;53;20423;-73
2022/10/04 10:34:11;0.00;0.00;0.62;0.00;0.00;0.62;2.33;1.60;;;27.00;29.20;;;;;;2269319;61;20368;-68
2022/10/04 10:37:08;0.00;0.00;0.62;0.00;0.00;0.62;2.53;1.87;;;27.00;29.20;;;;;;2262441;61;20364;-70
2022/10/04 10:40:22;0.00;0.00;0.62;0.00;0.00;0.62;3.00;1.90;;;27.00;29.20;;;;;;2269297;61;20383;-70
2022/10/04 10:43:37;0.00;0.00;0.62;0.00;0.00;0.62;3.50;2.20;;;27.10;29.30;;;;;;2269869;61;20379;-73
2022/10/04 10:46:51;0.00;0.00;0.62;0.00;0.00;0.62;2.30;1.90;;;27.10;29.30;;;;;;2269167;61;20662;-73
2022/10/04 10:50:13;0.00;0.00;0.62;0.00;0.00;0.62;2.50;1.70;;;27.20;29.30;;;;;;2269399;61;20387;-67
2022/10/04 10:54:06;0.00;0.00;0.62;0.00;0.00;0.62;2.40;1.77;;;27.20;29.80;;;;;;2265318;61;20419;-69
2022/10/04 10:57:15;0.00;0.00;0.62;0.00;0.00;0.62;2.10;1.50;;;27.20;29.30;;;;;;2263319;61;20376;-68
2022/10/04 11:00:19;0.00;0.00;0.62;0.00;0.00;0.62;1.97;1.30;;;27.30;29.30;;;;;;2269558;61;20379;-66
2022/10/04 11:03:59;0.00;0.00;0.62;0.00;0.00;0.62;2.00;1.50;;;27.30;29.30;;;;;;2270214;61;20355;-68
2022/10/04 11:07:15;0.00;0.00;0.62;0.00;0.00;0.62;2.77;1.57;;;27.40;29.40;;;;;;2265666;61;20422;-67
2022/10/04 11:10:49;0.00;0.00;0.62;0.00;0.00;0.62;2.70;1.80;;;27.40;29.90;;;;;;2269725;61;20403;-67
2022/10/04 11:14:21;0.00;0.00;0.62;0.00;0.00;0.62;2.27;1.63;;;27.40;29.40;;;;;;2270503;61;20355;-66
2022/10/04 11:17:55;0.00;0.00;0.62;0.00;0.00;0.62;2.57;1.90;;;27.50;29.40;;;;;;2269814;61;20397;-64
2022/10/04 11:21:52;0.00;0.00;0.62;0.00;0.00;0.62;2.00;1.40;;;27.60;29.50;;;;;;2270177;61;20376;-70
2022/10/04 11:25:28;0.00;0.00;0.62;0.00;0.00;0.62;1.90;1.40;;;27.60;29.40;;;;;;2269744;61;20670;-66
2022/10/04 11:28:21;0.00;0.00;0.62;0.00;0.00;0.62;2.70;1.50;;;27.70;29.40;;;;;;2270293;61;20385;-67
2022/10/04 11:31:41;0.00;0.00;0.62;0.00;0.00;0.62;1.90;1.40;;;27.80;29.50;;;;;;2269744;61;20420;-68
2022/10/04 11:35:04;0.00;0.00;0.62;0.00;0.00;0.62;1.83;1.40;;;27.80;29.50;;;;;;2270343;61;20357;-67
2022/10/04 11:38:03;0.00;0.00;0.62;0.00;0.00;0.62;1.67;1.20;;;27.80;29.50;;;;;;2264629;61;20352;-67
2022/10/04 11:41:09;0.00;0.00;0.62;0.00;0.00;0.62;2.00;1.40;;;27.90;29.50;;;;;;2270009;61;20376;-68
2022/10/04 11:44:33;0.00;0.00;0.62;0.00;0.00;0.62;2.47;1.30;;;28.00;29.50;;;;;;2269819;61;20390;-67
2022/10/04 11:47:43;0.00;0.00;0.62;0.00;0.00;0.62;1.83;1.30;;;28.00;29.50;;;;;;2270061;61;20407;-68
2022/10/04 11:50:40;0.00;0.00;0.62;0.00;0.00;0.62;2.47;1.20;;;28.10;29.50;;;;;;2270330;61;20413;-66
2022/10/04 11:54:12;0.00;0.00;0.62;0.00;0.00;0.62;3.47;1.63;;;28.10;29.50;;;;;;2269803;61;20375;-66
2022/10/04 11:57:25;0.00;0.00;0.62;0.00;0.00;0.62;3.13;2.13;;;28.10;29.40;;;;;;2270191;61;20456;-66
2022/10/04 12:00:19;0.00;0.00;0.62;0.00;0.00;0.62;3.83;1.53;;;28.20;29.30;;;;;;2269234;61;20384;-66